LTAD/ANK METAR and TAF weather

Enter ICAO airport designator
Station Type Date Time Source
LTAD METAR 2022/10/01 07:50 UTC NOAA

LTAD 010750Z 27003KT 220V340 CAVOK 23/10 Q1025 NOSIG RMK RWY29 VRB03KT


Station Type Date Time Source
LTAD Decoded METAR 2022/10/01 07:50 UTC NOAA

Ankara / Etimesgut, Turkey (LTAD) 39-57N 032-41E 806M
Oct 01, 2022 - 03:50 AM EDT / 2022.10.01 0750 UTC
Wind: from the W (270 degrees) at 3 MPH (3 KT) (direction variable):0
Visibility: greater than 7 mile(s):0
Temperature: 73 F (23 C)
Dew Point: 50 F (10 C)
Relative Humidity: 43%
Pressure (altimeter): 30.27 in. Hg (1025 hPa)
ob: LTAD 010750Z 27003KT 220V340 CAVOK 23/10 Q1025 NOSIG RMK RWY29 VRB03KT
cycle: 8

Station Type Date Time Source
LTAD TAF UTC NOAA

Error!

Example: see airport list